MMDO/DGO METAR and TAF weather

Enter ICAO airport designator
Station Type Date Time Source
MMDO METAR 2020/07/08 20:42 UTC NOAA

MMDO 082042Z 14008KT 10SM BKN028CB OVC200 28/09 A3015 RMK SLP053 57024 957 8/903


Station Type Date Time Source
MMDO Decoded METAR 2020/07/08 20:42 UTC NOAA

Durango Airport, Mexico (MMDO) 24-08N 104-32W
Jul 08, 2020 - 04:42 PM EDT / 2020.07.08 2042 UTC
Wind: from the SE (140 degrees) at 9 MPH (8 KT):0
Visibility: 10 mile(s):0
Sky conditions: overcast
Weather: Cumulonimbus clouds observed
Temperature: 82 F (28 C)
Dew Point: 48 F (9 C)
Relative Humidity: 30%
Pressure (altimeter): 30.15 in. Hg (1020 hPa)
Pressure tendency: 0.07 inches (2.4 hPa) lower than three hours ago
ob: MMDO 082042Z 14008KT 10SM BKN028CB OVC200 28/09 A3015 RMK SLP053 57024 957 8/903
cycle: 20

Station Type Date Time Source
MMDO TAF 2020/07/08 18:53 UTC NOAA

TAF MMDO 081746Z 0818/0918 08010KT P6SM SCT120 BKN220
BECMG 0821/0822 SCT030 BKN120
TEMPO 0823/0903 4SM TSRA BKN030CB BKN120
FM090300 06008KT P6SM SCT030 BKN120
TEMPO 0910/0914 5SM HZ BKN020
FM091700 08008KT P6SM SCT030

Example: see airport list